Time;durP1;ratioP1;P1;durP2;ratioP2;P2;SDS_P1;SDS_P2;PMS_P1;PMS_P2;Temp;Humidity;BMP_temperature;BMP_pressure;BME280_temperature;BME280_humidity;BME280_pressure;Samples;Min_cycle;Max_cycle;Signal;HPM_P1;HPM_P2
2021/06/05 00:00:41;;;;;;;18.73;11.55;;;;;;;17.34;61.32;100819.28;5053726;28;20048;-72
2021/06/05 00:03:11;;;;;;;14.18;10.60;;;;;;;17.31;61.37;100821.38;5051970;28;20053;-73
2021/06/05 00:05:41;;;;;;;18.98;10.82;;;;;;;17.35;61.13;100818.28;5053626;28;20452;-73
2021/06/05 00:08:11;;;;;;;16.08;10.73;;;;;;;17.44;60.76;100822.09;5052876;28;20402;-72
2021/06/05 00:10:42;;;;;;;16.83;10.80;;;;;;;17.34;61.68;100811.19;5053613;28;20087;-72
2021/06/05 00:13:13;;;;;;;14.65;10.27;;;;;;;17.25;61.66;100808.34;5051840;28;20081;-72
2021/06/05 00:15:43;;;;;;;16.90;10.25;;;;;;;17.38;60.70;100809.13;5053164;28;20044;-72
2021/06/05 00:18:13;;;;;;;14.73;11.02;;;;;;;17.53;60.62;100799.78;5052827;28;20045;-72
2021/06/05 00:20:41;;;;;;;18.27;12.65;;;;;;;17.58;60.58;100797.59;5053300;28;20135;-72
2021/06/05 00:23:13;;;;;;;18.40;11.77;;;;;;;17.63;60.19;100803.44;5052799;28;20056;-72
2021/06/05 00:25:42;;;;;;;18.52;12.85;;;;;;;17.48;60.79;100810.09;5053188;28;20052;-72
2021/06/05 00:28:13;;;;;;;18.08;13.85;;;;;;;17.50;60.50;100800.03;5052692;28;20119;-72
2021/06/05 00:30:43;;;;;;;19.55;14.65;;;;;;;17.44;61.05;100804.06;5052883;28;20077;-72
2021/06/05 00:33:11;;;;;;;18.10;14.18;;;;;;;17.46;60.67;100803.94;5052474;28;20072;-72
2021/06/05 00:35:40;;;;;;;15.35;12.77;;;;;;;17.36;60.76;100805.66;5051527;28;20128;-72
2021/06/05 00:38:09;;;;;;;15.02;11.25;;;;;;;17.25;61.04;100802.97;5052519;28;20037;-72
2021/06/05 00:40:41;;;;;;;16.35;11.00;;;;;;;17.22;60.93;100804.06;5052859;28;20045;-72
2021/06/05 00:43:12;;;;;;;16.83;10.88;;;;;;;17.20;61.07;100797.09;5052531;28;20462;-72
2021/06/05 00:45:43;;;;;;;16.20;11.13;;;;;;;17.21;61.02;100793.41;5052682;28;20088;-72
2021/06/05 00:48:12;;;;;;;15.50;10.48;;;;;;;17.13;61.05;100794.03;5052722;28;20044;-72
2021/06/05 00:50:42;;;;;;;19.67;12.27;;;;;;;17.03;61.75;100793.03;5052886;28;20041;-72
2021/06/05 00:53:12;;;;;;;16.35;11.20;;;;;;;16.79;63.99;100796.69;5052427;28;20044;-71
2021/06/05 00:55:44;;;;;;;17.48;10.63;;;;;;;16.55;65.54;100787.75;5052627;28;20049;-71
2021/06/05 00:58:14;;;;;;;14.45;11.25;;;;;;;16.50;65.26;100784.53;5052748;28;20041;-71
2021/06/05 01:00:47;;;;;;;16.70;10.25;;;;;;;16.40;65.80;100784.38;5052850;28;20132;-71
2021/06/05 01:03:16;;;;;;;15.77;11.98;;;;;;;16.48;63.99;100775.72;5052319;28;20037;-70
2021/06/05 01:05:46;;;;;;;21.08;12.25;;;;;;;16.42;64.27;100769.00;5052604;28;20080;-72
2021/06/05 01:08:21;;;;;;;19.73;13.90;;;;;;;16.44;63.16;100769.72;5055878;28;20049;-73
2021/06/05 01:10:53;;;;;;;18.75;13.02;;;;;;;16.43;63.66;100770.69;5056590;28;20106;-73
2021/06/05 01:13:31;;;;;;;19.20;12.45;;;;;;;16.34;64.63;100766.00;5056590;28;20072;-70
2021/06/05 01:16:08;;;;;;;22.45;16.52;;;;;;;16.41;63.45;100766.41;5056672;28;20041;-71
2021/06/05 01:18:42;;;;;;;20.45;15.90;;;;;;;16.43;63.47;100762.63;5056558;28;20037;-72
2021/06/05 01:21:31;;;;;;;17.13;13.00;;;;;;;16.33;65.26;100761.59;5056134;28;20445;-71
2021/06/05 01:24:09;;;;;;;19.10;13.45;;;;;;;16.18;64.95;100763.63;5056218;28;20091;-71
2021/06/05 01:26:41;;;;;;;15.30;11.15;;;;;;;16.39;61.95;100758.44;5056299;28;20445;-72
2021/06/05 01:29:16;;;;;;;13.32;9.90;;;;;;;16.45;61.11;100755.28;5055867;28;20048;-72
2021/06/05 01:31:47;;;;;;;14.40;10.10;;;;;;;16.33;61.65;100761.59;5056475;28;20474;-70
2021/06/05 01:34:15;;;;;;;12.05;9.93;;;;;;;16.25;61.91;100759.50;5055774;28;20107;-71
2021/06/05 01:36:45;;;;;;;15.55;9.68;;;;;;;16.13;62.44;100756.88;5056013;28;20041;-73
2021/06/05 01:39:16;;;;;;;13.30;9.60;;;;;;;16.06;63.05;100763.69;5055942;28;20209;-71
2021/06/05 01:41:47;;;;;;;16.50;10.35;;;;;;;16.00;63.74;100754.22;5056179;28;20045;-71
2021/06/05 01:44:16;;;;;;;14.35;9.88;;;;;;;15.95;64.29;100757.28;5055411;28;20057;-70
2021/06/05 01:46:47;;;;;;;15.00;10.05;;;;;;;16.01;64.20;100756.81;5056204;28;20045;-70
2021/06/05 01:49:16;;;;;;;14.30;9.95;;;;;;;16.06;63.78;100755.63;5055782;28;20144;-72
2021/06/05 01:51:47;;;;;;;16.55;10.05;;;;;;;16.01;63.86;100750.56;5056009;28;20464;-72
2021/06/05 01:54:21;;;;;;;14.40;9.85;;;;;;;16.24;62.84;100747.00;5055474;28;20406;-72
2021/06/05 01:56:54;;;;;;;14.45;9.70;;;;;;;16.15;62.57;100744.16;5056117;28;20041;-71
2021/06/05 01:59:23;;;;;;;13.73;10.05;;;;;;;16.07;62.94;100743.88;5055986;28;20065;-71
2021/06/05 02:01:52;;;;;;;15.75;9.68;;;;;;;16.01;63.28;100740.66;5055696;28;20044;-72
2021/06/05 02:04:20;;;;;;;13.55;9.60;;;;;;;15.92;63.76;100736.00;5055311;28;20044;-71
2021/06/05 02:06:52;;;;;;;13.27;9.80;;;;;;;15.88;63.57;100737.19;5055674;28;20045;-71
2021/06/05 02:09:23;;;;;;;14.13;9.73;;;;;;;16.12;61.70;100739.03;5055393;28;20048;-71
2021/06/05 02:11:56;;;;;;;12.95;9.13;;;;;;;16.36;60.34;100741.66;5055533;28;20057;-72
2021/06/05 02:14:30;;;;;;;13.47;9.90;;;;;;;16.40;60.30;100730.53;5055652;28;20051;-72
2021/06/05 02:17:00;;;;;;;14.38;9.65;;;;;;;16.28;60.52;100726.94;5054781;28;20045;-73
2021/06/05 02:19:31;;;;;;;14.10;9.23;;;;;;;16.22;60.67;100724.75;5055382;28;20110;-72
2021/06/05 02:22:03;;;;;;;14.90;9.25;;;;;;;16.01;61.67;100723.66;5055151;28;20132;-72
2021/06/05 02:24:35;;;;;;;16.38;10.65;;;;;;;16.01;61.43;100724.50;5055311;28;20148;-71
2021/06/05 02:27:08;;;;;;;18.38;12.35;;;;;;;16.00;61.91;100722.78;5054977;28;20045;-72
2021/06/05 02:29:39;;;;;;;14.95;10.35;;;;;;;15.99;61.84;100715.69;5055260;28;20044;-72
2021/06/05 02:32:09;;;;;;;13.55;9.75;;;;;;;16.03;61.51;100711.81;5054997;28;20045;-70
2021/06/05 02:34:38;;;;;;;11.65;9.27;;;;;;;16.00;62.10;100712.03;5055300;28;20044;-71
2021/06/05 02:37:09;;;;;;;15.65;9.60;;;;;;;15.83;63.22;100708.94;5054577;28;20041;-69
2021/06/05 02:39:39;;;;;;;12.98;9.15;;;;;;;15.69;63.78;100712.63;5054172;28;20080;-70
2021/06/05 02:42:11;;;;;;;13.98;9.50;;;;;;;15.64;64.02;100709.44;5054516;28;20069;-70
2021/06/05 02:44:42;;;;;;;15.38;9.30;;;;;;;15.59;64.27;100706.19;5053652;28;20061;-71
2021/06/05 02:47:11;;;;;;;12.70;9.85;;;;;;;15.55;64.95;100719.00;5054605;28;20041;-70
2021/06/05 02:49:40;;;;;;;18.52;11.18;;;;;;;15.64;65.31;100714.81;5054848;28;20555;-72
2021/06/05 02:52:11;;;;;;;12.32;9.77;;;;;;;15.53;66.02;100715.53;5054401;28;20432;-70
2021/06/05 02:54:39;;;;;;;19.30;11.38;;;;;;;15.41;66.81;100720.00;5054723;28;20051;-71
2021/06/05 02:57:08;;;;;;;21.13;11.32;;;;;;;15.35;67.27;100717.78;5054506;28;20045;-72
2021/06/05 02:59:36;;;;;;;17.40;10.35;;;;;;;15.32;66.79;100715.28;5054829;28;20052;-70
2021/06/05 03:02:04;;;;;;;16.13;10.82;;;;;;;15.33;66.98;100711.63;5054203;28;20095;-71
2021/06/05 03:04:32;;;;;;;18.20;9.93;;;;;;;15.42;66.72;100707.41;5053727;28;20053;-69
2021/06/05 03:06:59;;;;;;;16.77;9.63;;;;;;;15.45;66.67;100712.59;5054281;28;20041;-78
2021/06/05 03:09:27;;;;;;;17.52;10.70;;;;;;;15.50;65.90;100698.78;5054200;28;20041;-70
2021/06/05 03:11:55;;;;;;;16.23;10.10;;;;;;;15.51;66.29;100700.50;5054255;28;20064;-71
2021/06/05 03:14:24;;;;;;;15.27;10.77;;;;;;;15.57;66.21;100700.06;5054109;28;20041;-70
2021/06/05 03:16:55;;;;;;;17.23;11.60;;;;;;;15.63;65.77;100697.81;5054238;28;20102;-70
2021/06/05 03:19:23;;;;;;;14.75;9.75;;;;;;;15.64;66.38;100699.53;5053932;28;20037;-70
2021/06/05 03:21:50;;;;;;;16.20;10.25;;;;;;;15.67;66.35;100695.75;5054040;28;20049;-71
2021/06/05 03:24:18;;;;;;;14.50;10.00;;;;;;;15.70;66.22;100698.19;5053899;28;20040;-70
2021/06/05 03:26:46;;;;;;;13.55;9.85;;;;;;;15.74;65.76;100694.31;5054247;28;20041;-69
2021/06/05 03:29:14;;;;;;;14.70;10.27;;;;;;;15.87;65.14;100694.25;5052782;28;20486;-70
2021/06/05 03:31:43;;;;;;;13.07;9.63;;;;;;;15.96;64.51;100699.81;5054072;28;20051;-70
2021/06/05 03:34:11;;;;;;;17.38;9.80;;;;;;;16.34;64.08;100698.72;5053455;28;20045;-70
2021/06/05 03:36:39;;;;;;;14.27;9.00;;;;;;;16.68;63.09;100696.06;5054063;28;20041;-69
2021/06/05 03:39:07;;;;;;;15.15;9.88;;;;;;;17.69;59.72;100695.09;5053657;28;20049;-74
2021/06/05 03:41:36;;;;;;;13.13;9.63;;;;;;;18.60;56.38;100697.22;5053719;28;20048;-73
2021/06/05 03:44:05;;;;;;;16.33;10.98;;;;;;;19.50;52.98;100698.34;5053175;28;20083;-74
2021/06/05 03:46:33;;;;;;;11.98;9.10;;;;;;;20.07;51.90;100699.44;5053954;28;20063;-75
2021/06/05 03:49:03;;;;;;;16.17;9.45;;;;;;;20.98;49.14;100700.75;5053555;28;20137;-73
2021/06/05 03:51:31;;;;;;;14.93;9.27;;;;;;;21.28;47.74;100688.78;5052827;28;20422;-74
2021/06/05 03:53:59;;;;;;;14.38;8.90;;;;;;;21.30;47.76;100687.63;5053805;28;20044;-72
2021/06/05 03:56:29;;;;;;;12.23;8.77;;;;;;;21.42;46.99;100682.84;5053640;28;20053;-72
2021/06/05 03:58:56;;;;;;;13.95;8.75;;;;;;;21.65;47.04;100684.13;5053379;28;20037;-72
2021/06/05 04:01:26;;;;;;;13.07;8.57;;;;;;;22.02;46.04;100688.59;5053224;28;20049;-72
2021/06/05 04:03:55;;;;;;;14.23;9.40;;;;;;;22.49;44.76;100688.34;5053700;28;20072;-71
2021/06/05 04:06:28;;;;;;;12.10;8.75;;;;;;;22.76;43.64;100693.59;5053140;28;20055;-73
2021/06/05 04:08:58;;;;;;;10.40;8.27;;;;;;;22.93;43.10;100685.56;5053381;28;20041;-72
2021/06/05 04:11:28;;;;;;;13.52;9.25;;;;;;;23.32;42.86;100684.06;5052905;28;20045;-73
2021/06/05 04:13:57;;;;;;;15.43;8.45;;;;;;;23.10;43.00;100690.09;5053019;28;20371;-72
2021/06/05 04:16:25;;;;;;;13.65;9.18;;;;;;;22.92;43.35;100678.44;5053181;28;20037;-72
2021/06/05 04:18:55;;;;;;;11.05;7.82;;;;;;;23.50;42.28;100678.50;5053320;28;20041;-71
2021/06/05 04:21:26;;;;;;;13.32;8.30;;;;;;;24.57;39.65;100671.34;5052778;28;20533;-72
2021/06/05 04:23:54;;;;;;;12.25;8.32;;;;;;;24.50;40.12;100672.00;5053112;28;20542;-72
2021/06/05 04:26:26;;;;;;;12.13;7.97;;;;;;;24.48;40.38;100668.59;5052521;28;20059;-72
2021/06/05 04:28:54;;;;;;;11.70;8.10;;;;;;;24.88;39.00;100664.09;5052895;28;20090;-72
2021/06/05 04:31:26;;;;;;;16.17;8.80;;;;;;;25.31;38.56;100660.06;5052822;28;20048;-72
2021/06/05 04:33:54;;;;;;;13.88;8.50;;;;;;;24.97;39.06;100660.31;5052724;28;20486;-72
2021/06/05 04:36:23;;;;;;;14.82;8.68;;;;;;;24.88;38.88;100658.63;5052474;28;20049;-74
2021/06/05 04:38:52;;;;;;;14.02;8.75;;;;;;;25.38;37.99;100660.16;5052820;28;20068;-74
2021/06/05 04:41:20;;;;;;;14.15;8.77;;;;;;;26.13;36.74;100652.19;5052389;28;20041;-73
2021/06/05 04:43:48;;;;;;;12.35;8.10;;;;;;;26.29;36.42;100644.91;5053005;28;20393;-72
2021/06/05 04:46:17;;;;;;;10.77;7.45;;;;;;;26.54;35.30;100646.41;5052407;28;20088;-71
2021/06/05 04:48:46;;;;;;;12.75;7.80;;;;;;;26.84;34.61;100640.94;5052976;28;20041;-71
2021/06/05 04:51:16;;;;;;;11.13;7.35;;;;;;;26.88;33.93;100642.25;5052275;28;20098;-70
2021/06/05 04:53:44;;;;;;;11.45;7.93;;;;;;;27.43;33.84;100639.03;5052698;28;20044;-71
2021/06/05 04:56:24;;;;;;;12.52;7.45;;;;;;;27.94;32.68;100637.06;5052640;28;20045;-72
2021/06/05 04:58:51;;;;;;;11.40;6.93;;;;;;;28.47;31.91;100634.84;5053107;28;20081;-71
2021/06/05 05:01:19;;;;;;;11.50;7.60;;;;;;;27.72;33.35;100635.38;5052529;28;20041;-72
2021/06/05 05:03:47;;;;;;;10.93;7.85;;;;;;;26.56;34.57;100638.00;5052706;28;20446;-72
2021/06/05 05:06:15;;;;;;;11.95;8.18;;;;;;;25.58;36.71;100636.03;5052124;28;20045;-69
2021/06/05 05:08:43;;;;;;;12.35;8.02;;;;;;;25.42;37.32;100642.41;5052791;28;20055;-69
2021/06/05 05:11:10;;;;;;;11.55;7.80;;;;;;;26.61;35.75;100649.22;5052366;28;20036;-71
2021/06/05 05:13:40;;;;;;;11.50;7.70;;;;;;;26.57;35.33;100646.03;5052513;28;20482;-71
2021/06/05 05:16:08;;;;;;;12.55;8.10;;;;;;;26.33;35.81;100638.00;5052315;28;20068;-77
2021/06/05 05:18:38;;;;;;;12.15;8.00;;;;;;;26.41;35.69;100638.81;5052429;28;20079;-73
2021/06/05 05:21:07;;;;;;;11.50;7.80;;;;;;;26.06;36.70;100637.56;5052583;28;20049;-71
2021/06/05 05:23:34;;;;;;;17.88;8.10;;;;;;;25.84;37.37;100643.88;5052505;28;20086;-70
2021/06/05 05:26:05;;;;;;;12.63;7.82;;;;;;;25.20;38.59;100646.81;5052492;28;20037;-70
2021/06/05 05:28:34;;;;;;;12.55;8.18;;;;;;;25.22;38.75;100654.81;5051056;28;20118;-71
2021/06/05 05:31:06;;;;;;;14.05;8.70;;;;;;;26.03;37.40;100659.78;5052247;28;20079;-70
2021/06/05 05:33:38;;;;;;;11.55;8.07;;;;;;;27.25;35.01;100658.59;5052344;28;20478;-70
2021/06/05 05:36:10;;;;;;;14.00;8.35;;;;;;;27.61;34.29;100661.38;5052287;28;20494;-70
2021/06/05 05:38:38;;;;;;;13.43;8.48;;;;;;;27.94;34.21;100661.75;5052579;28;20076;-70
2021/06/05 05:41:08;;;;;;;11.68;7.75;;;;;;;28.68;32.89;100657.78;5052223;28;20041;-72
2021/06/05 05:43:36;;;;;;;13.85;8.02;;;;;;;28.91;31.86;100663.00;5052239;28;20045;-72
2021/06/05 05:46:06;;;;;;;11.23;8.05;;;;;;;28.86;31.82;100655.34;5050744;28;20056;-72
2021/06/05 05:48:36;;;;;;;13.40;8.50;;;;;;;28.92;31.36;100671.03;5051994;28;20041;-72
2021/06/05 05:51:04;;;;;;;15.10;8.45;;;;;;;29.14;30.82;100669.03;5052262;28;20047;-73
2021/06/05 05:53:34;;;;;;;15.60;8.57;;;;;;;29.29;30.26;100661.53;5052902;28;20080;-72
2021/06/05 05:56:03;;;;;;;10.57;8.40;;;;;;;29.47;30.26;100658.22;5055365;28;20140;-73
2021/06/05 05:58:31;;;;;;;12.13;8.02;;;;;;;29.08;30.80;100651.50;5055469;28;20420;-73
2021/06/05 06:00:58;;;;;;;10.93;7.72;;;;;;;29.66;30.46;100661.28;5055680;28;20045;-72
2021/06/05 06:03:29;;;;;;;15.85;8.00;;;;;;;29.89;30.13;100653.50;5055335;28;20041;-73
2021/06/05 06:05:57;;;;;;;16.17;8.35;;;;;;;29.96;29.71;100656.25;5055691;28;20482;-73
2021/06/05 06:08:24;;;;;;;14.40;7.65;;;;;;;30.05;29.03;100652.25;5055116;28;20098;-75
2021/06/05 06:10:53;;;;;;;14.25;7.72;;;;;;;30.39;29.20;100657.56;5055567;28;20095;-73
2021/06/05 06:13:21;;;;;;;15.55;8.32;;;;;;;29.97;29.43;100656.03;5055255;28;20041;-72
2021/06/05 06:15:49;;;;;;;12.80;7.63;;;;;;;30.51;28.67;100660.56;5055339;28;20114;-72
2021/06/05 06:18:17;;;;;;;14.77;7.75;;;;;;;30.11;29.81;100651.44;5053669;28;20056;-72
2021/06/05 06:20:49;;;;;;;13.07;7.15;;;;;;;30.27;29.57;100653.78;5055333;28;20037;-73
2021/06/05 06:23:19;;;;;;;12.80;7.00;;;;;;;31.08;27.86;100661.75;5055173;28;20120;-73
2021/06/05 06:25:49;;;;;;;11.40;6.43;;;;;;;31.32;27.99;100657.44;5055238;28;20044;-70
2021/06/05 06:28:26;;;;;;;14.88;6.70;;;;;;;31.25;27.71;100667.66;5054956;28;20116;-73
2021/06/05 06:30:54;;;;;;;9.93;6.60;;;;;;;31.41;28.09;100666.31;5054872;28;20048;-69
2021/06/05 06:33:24;;;;;;;14.43;6.93;;;;;;;31.48;28.06;100662.47;5054502;28;20053;-70
2021/06/05 06:35:54;;;;;;;11.95;7.40;;;;;;;31.58;27.63;100673.03;5054966;28;20456;-73
2021/06/05 06:38:25;;;;;;;9.65;6.20;;;;;;;31.46;27.81;100674.75;5053701;28;20131;-70
2021/06/05 06:40:53;;;;;;;12.25;6.85;;;;;;;31.46;27.81;100663.75;5054864;28;20099;-72
2021/06/05 06:43:24;;;;;;;10.18;5.55;;;;;;;32.02;26.03;100665.78;5054480;28;20128;-74
2021/06/05 06:45:52;;;;;;;9.75;6.13;;;;;;;31.53;26.31;100670.06;5054867;28;20053;-72
2021/06/05 06:48:21;;;;;;;11.23;6.13;;;;;;;31.85;26.54;100671.84;5054579;28;20132;-74
2021/06/05 06:50:50;;;;;;;8.40;5.50;;;;;;;31.87;26.41;100666.97;5054636;28;20076;-73
2021/06/05 06:53:20;;;;;;;13.98;5.68;;;;;;;31.89;25.38;100663.97;5054226;28;20436;-74
2021/06/05 06:55:48;;;;;;;10.38;4.97;;;;;;;31.41;25.70;100666.31;5054629;28;20055;-69
2021/06/05 06:58:16;;;;;;;9.15;4.18;;;;;;;30.67;26.28;100665.63;5054479;28;20049;-75
2021/06/05 07:00:46;;;;;;;10.15;4.68;;;;;;;29.92;27.78;100656.69;5054109;28;20087;-71
2021/06/05 07:03:15;;;;;;;8.05;4.28;;;;;;;29.60;28.83;100663.78;5054467;28;20040;-72
2021/06/05 07:05:43;;;;;;;8.13;4.30;;;;;;;29.29;28.57;100655.19;5054390;28;20128;-75
2021/06/05 07:08:17;;;;;;;11.45;4.10;;;;;;;29.04;28.92;100658.44;5054333;28;20099;-72
2021/06/05 07:10:48;;;;;;;7.00;4.07;;;;;;;28.92;28.56;100649.06;5054153;28;20044;-71
2021/06/05 07:13:16;;;;;;;8.98;4.10;;;;;;;28.61;29.01;100649.47;5054445;28;20099;-71
2021/06/05 07:15:44;;;;;;;9.38;4.07;;;;;;;28.72;28.28;100642.59;5057616;28;20117;-70
2021/06/05 07:18:14;;;;;;;9.27;3.78;;;;;;;28.63;28.29;100644.63;5054333;28;20131;-74
2021/06/05 07:20:44;;;;;;;10.70;4.30;;;;;;;28.36;29.02;100643.56;5054131;28;20078;-70
2021/06/05 07:23:12;;;;;;;5.78;3.63;;;;;;;28.20;30.19;100638.38;5054212;28;20041;-70
2021/06/05 07:25:40;;;;;;;6.43;3.80;;;;;;;27.52;30.79;100626.06;5053650;28;20051;-70
2021/06/05 07:28:15;;;;;;;8.23;3.90;;;;;;;27.17;30.84;100636.78;5054020;28;20049;-73
2021/06/05 07:30:44;;;;;;;10.10;3.95;;;;;;;27.15;31.83;100638.03;5054329;28;20087;-68
2021/06/05 07:33:13;;;;;;;8.52;4.05;;;;;;;27.39;31.64;100633.06;5053847;28;20059;-72
2021/06/05 07:35:41;;;;;;;7.80;4.10;;;;;;;27.45;31.77;100638.81;5053443;28;20051;-71
2021/06/05 07:38:12;;;;;;;6.20;3.63;;;;;;;27.49;31.28;100634.63;5053761;28;20045;-77
2021/06/05 07:40:41;;;;;;;6.18;4.05;;;;;;;27.56;30.68;100630.09;5053749;28;20555;-74
2021/06/05 07:43:09;;;;;;;9.32;4.10;;;;;;;27.33;30.73;100625.63;5053731;28;20041;-73
2021/06/05 07:45:39;;;;;;;8.68;3.63;;;;;;;26.90;30.12;100623.75;5052684;28;20052;-74
2021/06/05 07:48:07;;;;;;;10.70;4.10;;;;;;;26.93;30.91;100628.88;5053341;28;20053;-74
2021/06/05 07:50:35;;;;;;;6.78;3.65;;;;;;;27.14;32.16;100623.50;5053239;28;20091;-73
2021/06/05 07:53:03;;;;;;;7.72;3.55;;;;;;;27.33;31.03;100619.31;5053742;28;20401;-72
2021/06/05 07:55:32;;;;;;;7.25;3.38;;;;;;;27.19;29.36;100620.16;5053192;28;20527;-72
2021/06/05 07:58:00;;;;;;;6.28;3.30;;;;;;;27.07;30.11;100620.66;5053521;28;20041;-70
2021/06/05 08:00:30;;;;;;;5.78;3.25;;;;;;;26.61;31.19;100617.25;5053245;28;20045;-70
2021/06/05 08:02:59;;;;;;;5.25;3.20;;;;;;;26.34;30.77;100615.09;5053599;28;20469;-69
2021/06/05 08:05:28;;;;;;;6.65;3.45;;;;;;;26.25;31.59;100617.94;5053159;28;20041;-68
2021/06/05 08:07:56;;;;;;;8.10;3.40;;;;;;;26.59;31.69;100613.84;5053021;28;20083;-70
2021/06/05 08:10:26;;;;;;;9.35;3.83;;;;;;;26.93;31.46;100606.97;5053484;28;20075;-69
2021/06/05 08:12:54;;;;;;;11.57;3.60;;;;;;;27.10;31.26;100606.59;5052850;28;20051;-70
2021/06/05 08:15:25;;;;;;;7.03;3.70;;;;;;;27.17;30.60;100609.41;5052989;28;20041;-70
2021/06/05 08:17:53;;;;;;;6.13;3.13;;;;;;;27.18;30.41;100605.63;5052926;28;20954;-69
2021/06/05 08:20:32;;;;;;;9.75;3.28;;;;;;;27.24;30.42;100599.41;5053159;28;20047;-71
2021/06/05 08:23:00;;;;;;;9.25;3.90;;;;;;;27.18;30.22;100599.31;5052564;28;20052;-72
2021/06/05 08:25:28;;;;;;;6.35;3.80;;;;;;;27.16;30.59;100595.91;5051781;28;20056;-69
2021/06/05 08:27:56;;;;;;;6.50;3.28;;;;;;;27.22;30.20;100593.28;5052740;28;20037;-72
2021/06/05 08:30:28;;;;;;;5.53;3.58;;;;;;;27.28;30.62;100589.75;5052764;28;20131;-71
2021/06/05 08:32:56;;;;;;;8.63;3.80;;;;;;;27.28;30.89;100580.69;5052743;28;20049;-71
2021/06/05 08:35:26;;;;;;;7.43;3.65;;;;;;;27.21;31.03;100588.81;5053124;28;20045;-70
2021/06/05 08:37:54;;;;;;;5.13;2.90;;;;;;;27.31;29.46;100583.03;5052691;28;20064;-74
2021/06/05 08:40:26;;;;;;;5.13;2.90;;;;;;;27.25;29.30;100581.06;5052918;28;20091;-74
2021/06/05 08:42:56;;;;;;;8.95;3.13;;;;;;;27.34;29.54;100578.03;5052307;28;20040;-74
2021/06/05 08:45:30;;;;;;;9.70;3.35;;;;;;;27.36;29.58;100575.94;5052605;28;20053;-74
2021/06/05 08:47:59;;;;;;;8.65;3.28;;;;;;;27.34;29.70;100572.56;5052699;28;20394;-74
2021/06/05 08:50:30;;;;;;;7.00;3.05;;;;;;;27.32;29.89;100579.28;5053004;28;20082;-74
2021/06/05 08:53:03;;;;;;;7.75;3.28;;;;;;;27.35;29.16;100568.75;5052742;28;20490;-71
2021/06/05 08:55:37;;;;;;;6.80;3.20;;;;;;;27.34;29.42;100578.03;5052727;28;20041;-71
2021/06/05 08:58:14;;;;;;;7.15;2.70;;;;;;;27.36;29.06;100567.72;5052559;28;20124;-71
2021/06/05 09:00:46;;;;;;;7.82;3.58;;;;;;;27.36;28.81;100564.13;5051087;28;20482;-70
2021/06/05 09:03:16;;;;;;;7.30;3.28;;;;;;;27.36;29.24;100575.94;5049170;28;20075;-73
2021/06/05 09:05:50;;;;;;;6.53;2.80;;;;;;;27.43;28.38;100566.97;5031392;28;20060;-75
2021/06/05 09:08:19;;;;;;;6.20;2.78;;;;;;;27.41;28.07;100569.91;5032846;28;20050;-72
2021/06/05 09:11:04;;;;;;;5.32;2.80;;;;;;;27.37;28.52;100566.66;5032738;28;20051;-75
2021/06/05 09:13:33;;;;;;;5.05;2.70;;;;;;;27.44;27.74;100554.94;5032747;28;20049;-72
2021/06/05 09:16:27;;;;;;;6.80;2.83;;;;;;;27.32;27.93;100558.22;5032077;28;20046;-74
2021/06/05 09:19:00;;;;;;;5.90;2.80;;;;;;;27.12;28.26;100559.88;5030189;28;20555;-75
2021/06/05 09:21:33;;;;;;;6.60;2.95;;;;;;;27.07;29.22;100556.84;5032805;28;20045;-72
2021/06/05 09:24:15;;;;;;;5.72;2.90;;;;;;;27.24;28.68;100550.09;5031717;28;20057;-75
2021/06/05 09:27:00;;;;;;;6.82;3.20;;;;;;;27.34;29.05;100558.00;5032281;28;20049;-73
2021/06/05 09:29:28;;;;;;;7.25;3.42;;;;;;;27.53;29.18;100548.31;5035242;28;20060;-73
2021/06/05 09:32:00;;;;;;;4.85;2.85;;;;;;;27.49;28.51;100546.97;5036451;28;20049;-72
2021/06/05 09:34:32;;;;;;;6.70;3.35;;;;;;;27.57;28.85;100542.22;5051663;28;20044;-71
2021/06/05 09:37:02;;;;;;;7.70;3.25;;;;;;;27.57;26.83;100542.22;5056222;28;20052;-72
2021/06/05 09:39:40;;;;;;;7.43;2.85;;;;;;;27.67;28.49;100544.66;5056536;28;20076;-69
2021/06/05 09:42:11;;;;;;;6.80;3.03;;;;;;;27.61;27.96;100538.06;5056100;28;20166;-70
2021/06/05 09:44:43;;;;;;;5.60;2.75;;;;;;;27.27;27.93;100538.75;5055379;28;20056;-73
2021/06/05 09:47:27;;;;;;;9.43;2.70;;;;;;;27.48;28.44;100534.34;5055836;28;20047;-69
2021/06/05 09:50:16;;;;;;;5.32;2.80;;;;;;;27.54;28.18;100539.88;5055792;28;20072;-71
2021/06/05 09:52:46;;;;;;;5.68;2.65;;;;;;;27.61;28.01;100540.81;5056069;28;20139;-73
2021/06/05 09:55:36;;;;;;;5.18;2.78;;;;;;;27.55;27.28;100538.84;5055520;28;20391;-80
2021/06/05 09:58:09;;;;;;;6.30;2.95;;;;;;;27.61;27.68;100539.97;5055680;28;20401;-72
2021/06/05 10:00:40;;;;;;;4.25;2.63;;;;;;;27.73;27.71;100538.41;5055911;28;20437;-74
2021/06/05 10:03:20;;;;;;;3.97;2.85;;;;;;;27.68;27.74;100532.66;5056245;28;20040;-75
2021/06/05 10:05:50;;;;;;;6.25;2.85;;;;;;;27.78;26.42;100530.44;5055923;28;20045;-74
2021/06/05 10:08:27;;;;;;;9.82;2.92;;;;;;;27.73;25.81;100527.44;5056754;28;20053;-73
2021/06/05 10:11:02;;;;;;;6.43;2.85;;;;;;;27.84;26.23;100520.59;5054888;28;20051;-72
2021/06/05 10:13:36;;;;;;;11.77;2.78;;;;;;;27.85;26.43;100517.63;5055234;28;20486;-71
2021/06/05 10:16:08;;;;;;;6.78;2.72;;;;;;;27.97;26.44;100517.09;5055166;28;20041;-75
2021/06/05 10:18:42;;;;;;;5.80;2.60;;;;;;;27.81;26.74;100512.75;5054706;28;20123;-75
2021/06/05 10:21:16;;;;;;;8.57;3.15;;;;;;;27.74;26.80;100512.69;5054948;28;20045;-75
2021/06/05 10:23:50;;;;;;;8.10;3.05;;;;;;;27.72;27.08;100509.31;5055315;28;20052;-71
2021/06/05 10:26:24;;;;;;;5.45;2.97;;;;;;;27.80;26.67;100511.91;5055029;28;20406;-77
2021/06/05 10:28:56;;;;;;;7.28;2.88;;;;;;;27.85;26.78;100503.94;5055120;28;20048;-72
2021/06/05 10:31:25;;;;;;;5.55;2.92;;;;;;;27.77;26.58;100484.03;5055333;28;20556;-72
2021/06/05 10:33:57;;;;;;;6.32;2.65;;;;;;;27.72;27.00;100492.03;5054931;28;20489;-73
2021/06/05 10:36:28;;;;;;;7.82;2.58;;;;;;;27.80;26.73;100495.47;5055003;28;20044;-74
2021/06/05 10:39:02;;;;;;;4.15;2.45;;;;;;;28.03;26.53;100494.38;5054562;28;20045;-77
2021/06/05 10:41:32;;;;;;;6.30;2.60;;;;;;;28.15;26.97;100492.75;5055305;28;20505;-76
2021/06/05 10:44:00;;;;;;;5.43;2.53;;;;;;;28.33;26.00;100486.78;5054839;28;20053;-76
2021/06/05 10:46:39;;;;;;;5.22;2.50;;;;;;;28.48;26.42;100485.63;5055278;28;20063;-78
2021/06/05 10:49:15;;;;;;;4.65;2.60;;;;;;;28.52;26.54;100488.78;5055022;28;20091;-79
2021/06/05 10:51:47;;;;;;;6.72;3.05;;;;;;;28.96;25.81;100485.63;5053626;28;20076;-75
2021/06/05 10:54:23;;;;;;;5.32;2.80;;;;;;;28.81;26.07;100482.16;5053302;28;20057;-74
2021/06/05 10:57:03;;;;;;;4.93;2.90;;;;;;;29.12;25.62;100478.06;5054658;28;20099;-74
2021/06/05 10:59:43;;;;;;;5.60;2.80;;;;;;;29.05;24.78;100478.91;5054658;28;20433;-73
2021/06/05 11:02:36;;;;;;;4.43;2.47;;;;;;;28.86;24.46;100463.19;5054617;28;20041;-73
2021/06/05 11:05:28;;;;;;;;;;;;;;;28.47;24.84;100467.47;5054616;28;20052;-72
2021/06/05 11:08:29;;;;;;;5.88;2.83;;;;;;;28.47;25.48;100466.59;5054238;28;20031;-75
2021/06/05 11:11:27;;;;;;;4.93;2.70;;;;;;;28.59;25.01;100455.91;5054556;28;20041;-76
2021/06/05 11:13:56;;;;;;;6.45;2.40;;;;;;;28.59;25.83;100454.00;5051725;28;20083;-76
2021/06/05 11:17:19;;;;;;;8.85;2.95;;;;;;;28.68;25.91;100454.69;5053813;28;20045;-79
2021/06/05 11:19:51;;;;;;;5.10;2.50;;;;;;;28.86;25.67;100449.47;5054423;28;20037;-80
2021/06/05 11:22:21;;;;;;;4.40;2.30;;;;;;;28.51;25.45;100445.94;5054267;28;20044;-79
2021/06/05 11:25:22;;;;;;;7.57;2.53;;;;;;;28.38;25.29;100449.47;5053966;28;20564;-79
2021/06/05 11:27:52;;;;;;;4.72;2.60;;;;;;;28.35;25.27;100446.28;5054262;28;20041;-77
2021/06/05 11:30:40;;;;;;;4.25;2.60;;;;;;;28.41;25.03;100437.25;5054080;28;20475;-75
2021/06/05 11:33:09;;;;;;;6.43;2.85;;;;;;;28.46;25.09;100446.53;5053738;28;20398;-76
2021/06/05 11:35:45;;;;;;;5.93;2.58;;;;;;;28.70;25.62;100441.59;5053961;28;20397;-80
2021/06/05 11:38:48;;;;;;;6.20;2.55;;;;;;;28.58;25.66;100451.47;5054194;28;20072;-79